Aviation Digital Data Service (ADDS)

Output produced by METARs form (1530 UTC 18 January 2018)
found at http://aviationweather.gov/adds/metars/
 
KHUM 181450Z 02011KT 7SM SKC M02/M06 A3059